Tinker AFB, Oklahoma
Current Conditions -  °F | °C
As of 2:58 AM on Monday 24 Nov 2014 (Local Time) from KTIK Reporting Station
Clear Clear  
Wind Chill: 34°   Ceiling: Unl
Heat Index: 40°   Visibility: 10mi
Dew Point: 28°   Wind: 9mph
Humidity: 61%   Direction: 310°NW
Pressure: 29.85"   Gusts: NA
Location:  35.4189°N, 97.3941°W
Report Text: KTIK 240858Z AUTO 31008KT 10SM CLR 05/M02 A2985 RMK AO2 SLP115 T00451025 52023
Loading
Personal Weather Stations






























Interactive Weather Map New forecast layout! Learn more

10-Day Weather Forecast

Advertisements
Track Severe Weather on mobile